createdAt,value
2022-11-19T00:01:46.162Z,-1.40
2022-11-19T00:04:19.589Z,-1.30
2022-11-19T00:06:53.149Z,-1.30
2022-11-19T00:09:26.445Z,-1.30
2022-11-19T00:12:17.370Z,-1.30
2022-11-19T00:14:50.920Z,-1.30
2022-11-19T00:17:25.594Z,-1.40
2022-11-19T00:19:58.865Z,-1.40
2022-11-19T00:22:32.320Z,-1.40
2022-11-19T00:25:06.405Z,-1.40
2022-11-19T00:27:39.888Z,-1.40
2022-11-19T00:30:32.720Z,-1.30
2022-11-19T00:33:09.497Z,-1.40
2022-11-19T00:35:42.777Z,-1.40
2022-11-19T00:38:16.396Z,-1.40
2022-11-19T00:40:49.687Z,-1.30
2022-11-19T00:43:40.743Z,-1.40
2022-11-19T00:46:14.812Z,-1.30
2022-11-19T00:48:51.193Z,-1.30
2022-11-19T00:51:26.965Z,-1.30
2022-11-19T00:54:00.277Z,-1.30
2022-11-19T00:56:33.809Z,-1.30
2022-11-19T00:59:07.132Z,-1.40
2022-11-19T01:01:40.842Z,-1.30
2022-11-19T01:04:15.819Z,-1.40
2022-11-19T01:06:49.104Z,-1.40
2022-11-19T01:09:22.976Z,-1.40
2022-11-19T01:11:56.453Z,-1.40
2022-11-19T01:14:29.742Z,-1.30
2022-11-19T01:17:03.255Z,-1.30
2022-11-19T01:19:38.089Z,-1.30
2022-11-19T01:22:11.370Z,-1.30
2022-11-19T01:24:44.996Z,-1.30
2022-11-19T01:27:18.253Z,-1.30
2022-11-19T01:29:51.991Z,-1.30
2022-11-19T01:32:25.277Z,-1.20
2022-11-19T01:35:00.467Z,-1.30
2022-11-19T01:37:33.763Z,-1.20
2022-11-19T01:40:08.653Z,-1.20
2022-11-19T01:42:50.694Z,-1.20
2022-11-19T01:45:31.757Z,-1.20
2022-11-19T01:48:09.751Z,-1.20
2022-11-19T01:50:49.557Z,-1.20
2022-11-19T01:53:26.739Z,-1.20
2022-11-19T01:56:04.147Z,-1.20
2022-11-19T01:58:40.302Z,-1.30
2022-11-19T02:01:14.424Z,-1.30
2022-11-19T02:03:49.354Z,-1.40
2022-11-19T02:06:24.117Z,-1.30
2022-11-19T02:08:58.458Z,-1.30
2022-11-19T02:11:53.455Z,-1.30
2022-11-19T02:14:42.474Z,-1.30
2022-11-19T02:17:23.691Z,-1.30
2022-11-19T02:20:28.295Z,-1.30
2022-11-19T02:23:17.780Z,-1.30
2022-11-19T02:26:09.656Z,-1.30
2022-11-19T02:28:47.755Z,-1.30
2022-11-19T02:31:25.529Z,-1.40
2022-11-19T02:34:03.570Z,-1.40
2022-11-19T02:36:42.882Z,-1.50
2022-11-19T02:39:22.327Z,-1.50
2022-11-19T02:42:04.008Z,-1.50
2022-11-19T02:44:58.946Z,-1.40
2022-11-19T02:47:38.344Z,-1.50
2022-11-19T02:50:16.703Z,-1.50
2022-11-19T02:52:50.694Z,-1.50
2022-11-19T02:55:24.814Z,-1.50
2022-11-19T02:58:02.127Z,-1.50
2022-11-19T03:01:00.806Z,-1.50
2022-11-19T03:03:53.773Z,-1.60
2022-11-19T03:06:32.820Z,-1.60
2022-11-19T03:09:06.462Z,-1.50
2022-11-19T03:11:40.263Z,-1.50
2022-11-19T03:14:38.022Z,-1.50
2022-11-19T03:17:18.219Z,-1.50
2022-11-19T03:19:59.737Z,-1.50
2022-11-19T03:22:39.001Z,-1.50
2022-11-19T03:25:17.416Z,-1.60
2022-11-19T03:27:55.335Z,-1.50
2022-11-19T03:30:30.267Z,-1.60
2022-11-19T03:33:08.107Z,-1.60
2022-11-19T03:35:50.188Z,-1.70
2022-11-19T03:38:29.806Z,-1.70
2022-11-19T03:41:05.273Z,-1.70
2022-11-19T03:43:42.885Z,-1.70
2022-11-19T03:46:19.489Z,-1.70
2022-11-19T03:48:55.058Z,-1.70
2022-11-19T03:51:36.723Z,-1.70
2022-11-19T03:54:10.704Z,-1.70
2022-11-19T03:56:46.079Z,-1.70
2022-11-19T03:59:20.180Z,-1.70
2022-11-19T04:01:58.624Z,-1.70
2022-11-19T04:04:38.214Z,-1.70
2022-11-19T04:07:15.431Z,-1.70
2022-11-19T04:09:52.297Z,-1.70
2022-11-19T04:12:27.013Z,-1.70
2022-11-19T04:15:00.262Z,-1.70
2022-11-19T04:17:34.127Z,-1.70
2022-11-19T04:20:09.473Z,-1.70
2022-11-19T04:22:44.373Z,-1.70
2022-11-19T04:25:17.846Z,-1.70
2022-11-19T04:27:51.084Z,-1.60
2022-11-19T04:30:24.531Z,-1.60
2022-11-19T04:32:57.927Z,-1.60
2022-11-19T04:35:31.647Z,-1.60
2022-11-19T04:38:06.432Z,-1.60
2022-11-19T04:40:40.416Z,-1.60
2022-11-19T04:43:13.699Z,-1.60
2022-11-19T04:45:47.302Z,-1.60
2022-11-19T04:48:20.542Z,-1.50
2022-11-19T04:50:53.812Z,-1.60
2022-11-19T04:53:28.554Z,-1.60
2022-11-19T04:56:02.535Z,-1.60
2022-11-19T04:58:36.304Z,-1.60
2022-11-19T05:01:09.767Z,-1.60
2022-11-19T05:03:43.357Z,-1.70
2022-11-19T05:06:16.617Z,-1.70
2022-11-19T05:08:51.645Z,-1.60
2022-11-19T05:11:24.908Z,-1.60
2022-11-19T05:13:58.348Z,-1.60
2022-11-19T05:16:31.611Z,-1.60
2022-11-19T05:19:05.059Z,-1.60
2022-11-19T05:21:38.524Z,-1.60
2022-11-19T05:24:13.231Z,-1.60
2022-11-19T05:26:46.780Z,-1.60
2022-11-19T05:29:20.236Z,-1.50
2022-11-19T05:31:54.052Z,-1.50
2022-11-19T05:34:27.321Z,-1.50
2022-11-19T05:37:00.600Z,-1.50
2022-11-19T05:39:35.703Z,-1.50
2022-11-19T05:42:09.458Z,-1.50
2022-11-19T05:44:42.709Z,-1.50
2022-11-19T05:47:17.268Z,-1.40
2022-11-19T05:49:50.513Z,-1.40
2022-11-19T05:52:24.486Z,-1.40
2022-11-19T05:54:59.291Z,-1.40
2022-11-19T05:57:32.746Z,-1.40
2022-11-19T06:00:06.616Z,-1.40
2022-11-19T06:02:45.936Z,-1.40
2022-11-19T06:05:19.291Z,-1.40
2022-11-19T06:07:52.555Z,-1.40
2022-11-19T06:10:27.193Z,-1.30
2022-11-19T06:13:00.455Z,-1.30
2022-11-19T06:15:33.759Z,-1.30
2022-11-19T06:18:07.161Z,-1.30
2022-11-19T06:20:40.480Z,-1.30
2022-11-19T06:23:13.888Z,-1.30
2022-11-19T06:25:50.343Z,-1.30
2022-11-19T06:28:23.629Z,-1.20
2022-11-19T06:30:56.886Z,-1.30
2022-11-19T06:33:30.158Z,-1.20
2022-11-19T06:36:03.399Z,-1.20
2022-11-19T06:38:36.871Z,-1.20
2022-11-19T06:41:11.675Z,-1.20
2022-11-19T06:43:45.483Z,-1.20
2022-11-19T06:46:18.740Z,-1.20
2022-11-19T06:48:52.179Z,-1.10
2022-11-19T06:51:25.430Z,-1.10
2022-11-19T06:53:58.726Z,-1.10
2022-11-19T06:56:33.377Z,-1.10
2022-11-19T06:59:06.689Z,-1.00
2022-11-19T07:01:40.051Z,-1.00
2022-11-19T07:04:13.381Z,-1.00
2022-11-19T07:06:46.647Z,-1.00
2022-11-19T07:09:20.169Z,-1.00
2022-11-19T07:11:55.004Z,-0.90
2022-11-19T07:14:28.277Z,-1.00
2022-11-19T07:17:01.586Z,-1.00
2022-11-19T07:19:35.335Z,-1.00
2022-11-19T07:22:08.746Z,-0.90
2022-11-19T07:24:42.198Z,-0.90
2022-11-19T07:27:17.085Z,-0.90
2022-11-19T07:29:50.350Z,-0.90
2022-11-19T07:32:23.874Z,-0.80
2022-11-19T07:34:57.587Z,-0.80
2022-11-19T07:37:30.828Z,-0.80
2022-11-19T07:40:05.042Z,-0.70
2022-11-19T07:42:51.846Z,-0.70
2022-11-19T07:45:25.210Z,-0.70
2022-11-19T07:47:58.476Z,-0.70
2022-11-19T07:50:32.019Z,-0.60
2022-11-19T07:53:05.437Z,-0.60
2022-11-19T07:55:38.720Z,-0.60
2022-11-19T07:58:13.427Z,-0.60
2022-11-19T08:00:46.665Z,-0.50
2022-11-19T08:03:20.149Z,-0.50
2022-11-19T08:05:53.380Z,-0.50
2022-11-19T08:08:26.722Z,-0.40
2022-11-19T08:11:04.825Z,-0.40
2022-11-19T08:13:39.956Z,-0.40
2022-11-19T08:16:35.158Z,-0.30
2022-11-19T08:19:09.616Z,-0.30
2022-11-19T08:21:44.612Z,-0.30
2022-11-19T08:24:20.729Z,-0.30
2022-11-19T08:26:54.329Z,-0.30
2022-11-19T08:29:29.223Z,-0.30
2022-11-19T08:32:02.559Z,-0.20
2022-11-19T08:34:35.883Z,-0.30
2022-11-19T08:37:11.229Z,-0.30
2022-11-19T08:39:44.498Z,-0.20
2022-11-19T08:42:35.011Z,-0.20
2022-11-19T08:45:10.583Z,-0.10
2022-11-19T08:47:44.147Z,-0.10
2022-11-19T08:50:18.159Z,-0.10
2022-11-19T08:52:55.880Z,-0.10
2022-11-19T08:55:30.949Z,-0.10
2022-11-19T08:58:05.725Z,-0.10
2022-11-19T09:00:40.617Z,-0.10
2022-11-19T09:03:14.455Z,0.00
2022-11-19T09:05:47.897Z,0.00
2022-11-19T09:08:21.222Z,0.10
2022-11-19T09:10:54.550Z,0.10
2022-11-19T09:13:27.804Z,0.10
2022-11-19T09:16:02.627Z,0.20
2022-11-19T09:18:39.065Z,0.20
2022-11-19T09:21:13.397Z,0.20
2022-11-19T09:23:46.724Z,0.30
2022-11-19T09:26:20.384Z,0.40
2022-11-19T09:28:53.777Z,0.50
2022-11-19T09:31:28.408Z,0.50
2022-11-19T09:34:01.721Z,0.60
2022-11-19T09:36:34.965Z,0.60
2022-11-19T09:39:08.213Z,0.70
2022-11-19T09:41:46.798Z,0.70
2022-11-19T09:44:48.023Z,0.70
2022-11-19T09:47:33.749Z,0.80
2022-11-19T09:50:16.534Z,0.80
2022-11-19T09:52:53.328Z,0.80
2022-11-19T09:55:32.566Z,0.80
2022-11-19T09:58:13.069Z,0.80
2022-11-19T10:00:47.116Z,0.90
2022-11-19T10:03:26.291Z,0.90
2022-11-19T10:06:20.969Z,0.80
2022-11-19T10:09:13.306Z,0.80
2022-11-19T10:11:57.258Z,0.80
2022-11-19T10:14:59.564Z,0.80
2022-11-19T10:17:45.291Z,0.80
2022-11-19T10:20:34.146Z,0.70
2022-11-19T10:23:16.334Z,0.70
2022-11-19T10:25:52.452Z,0.80
2022-11-19T10:28:29.078Z,0.80
2022-11-19T10:31:09.300Z,0.80
2022-11-19T10:33:49.718Z,0.80
2022-11-19T10:36:28.535Z,0.80
2022-11-19T10:39:07.739Z,0.90
2022-11-19T10:41:47.242Z,1.00
2022-11-19T10:44:40.709Z,1.00
2022-11-19T10:47:19.437Z,1.00
2022-11-19T10:49:54.981Z,1.00
2022-11-19T10:52:33.379Z,0.90
2022-11-19T10:55:19.879Z,0.90
2022-11-19T10:58:04.359Z,1.00
2022-11-19T11:00:39.320Z,1.00
2022-11-19T11:03:21.452Z,1.00
2022-11-19T11:05:58.371Z,0.90
2022-11-19T11:08:33.612Z,1.00
2022-11-19T11:11:06.989Z,1.00
2022-11-19T11:13:59.114Z,1.00
2022-11-19T11:16:44.915Z,1.00
2022-11-19T11:19:20.284Z,1.00
2022-11-19T11:21:56.255Z,1.00
2022-11-19T11:24:36.047Z,1.00
2022-11-19T11:27:33.377Z,1.00
2022-11-19T11:30:16.000Z,1.10
2022-11-19T11:32:49.931Z,1.10
2022-11-19T11:35:32.402Z,1.10
2022-11-19T11:38:06.875Z,1.10
2022-11-19T11:40:41.629Z,1.00
2022-11-19T11:43:18.908Z,1.00
2022-11-19T11:45:58.162Z,1.00
2022-11-19T11:48:38.225Z,1.00
2022-11-19T11:51:26.775Z,1.00
2022-11-19T11:54:18.168Z,1.00
2022-11-19T11:56:53.452Z,1.00
2022-11-19T11:59:29.270Z,0.90
2022-11-19T12:02:05.572Z,1.00
2022-11-19T12:04:38.942Z,0.90
2022-11-19T12:07:20.677Z,0.90
2022-11-19T12:10:04.419Z,0.90
2022-11-19T12:12:43.084Z,0.80
2022-11-19T12:15:23.457Z,0.80
2022-11-19T12:18:06.885Z,0.80
2022-11-19T12:20:46.657Z,0.80
2022-11-19T12:23:35.050Z,0.70
2022-11-19T12:26:20.556Z,0.70
2022-11-19T12:29:13.508Z,0.70
2022-11-19T12:32:00.223Z,0.70
2022-11-19T12:35:01.026Z,0.70
2022-11-19T12:37:43.787Z,0.60
2022-11-19T12:40:36.590Z,0.60
2022-11-19T12:43:26.364Z,0.60
2022-11-19T12:46:10.375Z,0.60
2022-11-19T12:48:55.262Z,0.60
2022-11-19T12:51:42.556Z,0.60
2022-11-19T12:54:37.562Z,0.60
2022-11-19T12:57:29.321Z,0.60
2022-11-19T13:00:11.988Z,0.60
2022-11-19T13:03:00.027Z,0.70
2022-11-19T13:05:42.790Z,0.60
2022-11-19T13:08:23.626Z,0.70
2022-11-19T13:11:05.767Z,0.70
2022-11-19T13:13:42.359Z,0.60
2022-11-19T13:16:18.982Z,0.60
2022-11-19T13:18:56.647Z,0.60
2022-11-19T13:21:38.660Z,0.70
2022-11-19T13:24:30.092Z,0.70
2022-11-19T13:27:06.584Z,0.60
2022-11-19T13:29:44.822Z,0.60
2022-11-19T13:32:23.925Z,0.60
2022-11-19T13:35:17.576Z,0.60
2022-11-19T13:38:01.135Z,0.60
2022-11-19T13:40:38.387Z,0.60
2022-11-19T13:43:32.985Z,0.60
2022-11-19T13:46:18.029Z,0.60
2022-11-19T13:48:57.513Z,0.60
2022-11-19T13:51:36.176Z,0.60
2022-11-19T13:54:10.683Z,0.60
2022-11-19T13:56:46.937Z,0.60
2022-11-19T13:59:37.917Z,0.60
2022-11-19T14:02:50.023Z,0.60
2022-11-19T14:05:45.204Z,0.60
2022-11-19T14:08:30.520Z,0.50
2022-11-19T14:11:16.048Z,0.50
2022-11-19T14:14:43.565Z,0.50
2022-11-19T14:17:42.140Z,0.50
2022-11-19T14:20:54.618Z,0.40
2022-11-19T14:24:00.950Z,0.40
2022-11-19T14:27:13.137Z,0.40
2022-11-19T14:30:03.339Z,0.40
2022-11-19T14:32:46.911Z,0.40
2022-11-19T14:35:38.249Z,0.40
2022-11-19T14:38:35.291Z,0.40
2022-11-19T14:41:33.420Z,0.30
2022-11-19T14:44:11.769Z,0.30
2022-11-19T14:46:48.005Z,0.30
2022-11-19T14:49:31.173Z,0.30
2022-11-19T14:52:05.059Z,0.30
2022-11-19T14:54:44.024Z,0.30
2022-11-19T14:57:27.930Z,0.30
2022-11-19T15:00:04.853Z,0.20
2022-11-19T15:02:45.630Z,0.10
2022-11-19T15:05:21.753Z,0.10
2022-11-19T15:08:44.337Z,0.10
2022-11-19T15:11:18.585Z,0.10
2022-11-19T15:14:34.276Z,0.10
2022-11-19T15:17:12.123Z,0.10
2022-11-19T15:19:54.005Z,0.10
2022-11-19T15:22:42.209Z,0.10
2022-11-19T15:25:35.254Z,0.10
2022-11-19T15:28:24.580Z,0.10
2022-11-19T15:31:16.310Z,0.10
2022-11-19T15:34:17.777Z,0.10
2022-11-19T15:36:53.311Z,0.00
2022-11-19T15:39:32.993Z,0.00
2022-11-19T15:42:13.544Z,0.00
2022-11-19T15:44:51.409Z,-0.10
2022-11-19T15:47:30.003Z,0.00
2022-11-19T15:50:04.590Z,0.00
2022-11-19T15:52:37.925Z,0.00
2022-11-19T15:55:12.507Z,0.00
2022-11-19T15:57:52.426Z,0.00
2022-11-19T16:00:30.390Z,0.00
2022-11-19T16:03:04.683Z,0.00
2022-11-19T16:05:38.028Z,0.00
2022-11-19T16:08:17.106Z,0.00
2022-11-19T16:11:10.446Z,0.10
2022-11-19T16:14:10.111Z,0.00
2022-11-19T16:17:01.069Z,0.00
2022-11-19T16:19:34.391Z,0.00
2022-11-19T16:22:08.871Z,0.00
2022-11-19T16:24:59.790Z,0.00
2022-11-19T16:27:33.198Z,0.00
2022-11-19T16:30:16.894Z,0.00
2022-11-19T16:32:51.358Z,0.00
2022-11-19T16:35:26.954Z,0.00
2022-11-19T16:38:01.963Z,0.00
2022-11-19T16:40:49.304Z,0.00
2022-11-19T16:43:22.757Z,0.00
2022-11-19T16:45:58.521Z,0.00
2022-11-19T16:48:55.022Z,0.00
2022-11-19T16:51:37.527Z,0.00
2022-11-19T16:54:11.371Z,-0.10
2022-11-19T16:56:47.719Z,-0.10
2022-11-19T16:59:23.909Z,-0.10
2022-11-19T17:02:00.610Z,-0.10
2022-11-19T17:04:33.903Z,-0.10
2022-11-19T17:07:07.329Z,-0.10
2022-11-19T17:09:44.620Z,-0.10
2022-11-19T17:12:27.386Z,-0.10
2022-11-19T17:15:01.921Z,-0.10
2022-11-19T17:17:41.125Z,-0.10
2022-11-19T17:21:00.277Z,-0.10
2022-11-19T17:23:35.651Z,-0.10
2022-11-19T17:26:11.797Z,-0.10
2022-11-19T17:28:46.841Z,-0.10
2022-11-19T17:31:22.959Z,-0.10
2022-11-19T17:33:59.058Z,-0.10
2022-11-19T17:36:32.338Z,-0.10
2022-11-19T17:39:09.886Z,-0.10
2022-11-19T17:42:02.169Z,-0.10
2022-11-19T17:44:39.361Z,-0.10
2022-11-19T17:47:24.066Z,-0.20
2022-11-19T17:49:59.095Z,-0.20
2022-11-19T17:52:32.962Z,-0.20
2022-11-19T17:55:16.613Z,-0.20
2022-11-19T17:57:50.041Z,-0.20
2022-11-19T18:00:23.310Z,-0.30
2022-11-19T18:03:01.766Z,-0.30
2022-11-19T18:05:39.155Z,-0.30
2022-11-19T18:08:12.477Z,-0.30
2022-11-19T18:10:47.382Z,-0.30
2022-11-19T18:13:25.283Z,-0.30
2022-11-19T18:15:58.776Z,-0.30
2022-11-19T18:18:32.160Z,-0.30
2022-11-19T18:21:07.205Z,-0.30
2022-11-19T18:23:40.907Z,-0.30
2022-11-19T18:26:15.361Z,-0.40
2022-11-19T18:28:49.343Z,-0.40
2022-11-19T18:31:26.167Z,-0.40
2022-11-19T18:33:59.577Z,-0.50
2022-11-19T18:36:34.271Z,-0.60
2022-11-19T18:39:07.640Z,-0.60
2022-11-19T18:41:41.092Z,-0.70
2022-11-19T18:44:34.869Z,-0.70
2022-11-19T18:47:10.660Z,-0.70
2022-11-19T18:49:44.002Z,-0.70
2022-11-19T18:52:18.954Z,-0.70
2022-11-19T18:54:52.279Z,-0.70
2022-11-19T18:57:25.628Z,-0.70
2022-11-19T18:59:58.932Z,-0.70
2022-11-19T19:02:33.809Z,-0.60
2022-11-19T19:05:07.904Z,-0.60
2022-11-19T19:07:42.687Z,-0.60
2022-11-19T19:10:16.487Z,-0.70
2022-11-19T19:12:48.753Z,-0.70
2022-11-19T19:15:22.163Z,-0.60
2022-11-19T19:17:55.438Z,-0.70
2022-11-19T19:20:28.746Z,-0.70
2022-11-19T19:23:03.439Z,-0.60
2022-11-19T19:25:37.230Z,-0.70
2022-11-19T19:28:10.632Z,-0.70
2022-11-19T19:30:44.172Z,-0.70
2022-11-19T19:33:17.432Z,-0.70
2022-11-19T19:35:50.783Z,-0.70
2022-11-19T19:38:25.738Z,-0.70
2022-11-19T19:41:05.004Z,-0.70
2022-11-19T19:43:38.357Z,-0.80
2022-11-19T19:46:15.881Z,-0.80
2022-11-19T19:48:51.783Z,-0.80
2022-11-19T19:51:26.930Z,-0.80
2022-11-19T19:54:02.129Z,-0.80
2022-11-19T19:56:35.486Z,-0.80
2022-11-19T19:59:08.778Z,-0.80
2022-11-19T20:01:44.883Z,-0.90
2022-11-19T20:04:18.378Z,-0.90
2022-11-19T20:06:52.661Z,-0.90
2022-11-19T20:09:27.698Z,-0.90
2022-11-19T20:12:01.295Z,-1.00
2022-11-19T20:14:34.668Z,-1.00
2022-11-19T20:17:07.952Z,-1.00
2022-11-19T20:19:41.201Z,-1.00
2022-11-19T20:22:14.660Z,-1.00
2022-11-19T20:24:49.316Z,-1.00
2022-11-19T20:27:23.064Z,-1.00
2022-11-19T20:29:57.127Z,-1.00
2022-11-19T20:32:31.424Z,-1.00
2022-11-19T20:35:05.180Z,-1.00
2022-11-19T20:37:38.430Z,-1.10
2022-11-19T20:40:13.422Z,-1.10
2022-11-19T20:43:03.816Z,-1.10
2022-11-19T20:45:37.081Z,-1.10
2022-11-19T20:48:10.337Z,-1.10
2022-11-19T20:50:43.662Z,-1.10
2022-11-19T20:53:16.931Z,-1.10
2022-11-19T20:56:04.494Z,-1.20
2022-11-19T20:58:38.082Z,-1.20
2022-11-19T21:01:12.214Z,-1.20
2022-11-19T21:03:45.495Z,-1.20
2022-11-19T21:06:19.046Z,-1.20
2022-11-19T21:08:52.404Z,-1.30
2022-11-19T21:11:27.107Z,-1.30
2022-11-19T21:14:00.576Z,-1.30
2022-11-19T21:16:34.072Z,-1.30
2022-11-19T21:19:07.376Z,-1.30
2022-11-19T21:21:40.706Z,-1.40
2022-11-19T21:24:14.099Z,-1.40
2022-11-19T21:26:49.144Z,-1.50
2022-11-19T21:29:22.686Z,-1.50
2022-11-19T21:31:56.120Z,-1.50
2022-11-19T21:34:29.447Z,-1.60
2022-11-19T21:37:02.686Z,-1.60
2022-11-19T21:39:36.138Z,-1.60
2022-11-19T21:42:10.770Z,-1.60
2022-11-19T21:44:44.079Z,-1.70
2022-11-19T21:47:17.344Z,-1.70
2022-11-19T21:49:50.588Z,-1.70
2022-11-19T21:52:23.868Z,-1.70
2022-11-19T21:54:57.216Z,-1.70
2022-11-19T21:57:31.847Z,-1.70
2022-11-19T22:00:06.337Z,-1.70
2022-11-19T22:02:46.287Z,-1.80
2022-11-19T22:05:19.727Z,-1.80
2022-11-19T22:07:53.704Z,-1.80
2022-11-19T22:10:27.047Z,-1.80
2022-11-19T22:13:01.671Z,-1.90
2022-11-19T22:15:35.431Z,-1.90
2022-11-19T22:18:08.867Z,-1.90
2022-11-19T22:20:43.353Z,-1.90
2022-11-19T22:23:20.160Z,-1.90
2022-11-19T22:25:57.680Z,-2.00
2022-11-19T22:28:32.343Z,-2.00
2022-11-19T22:31:06.192Z,-1.90
2022-11-19T22:33:41.173Z,-2.00
2022-11-19T22:36:14.547Z,-2.00
2022-11-19T22:38:47.965Z,-2.00
2022-11-19T22:41:22.333Z,-2.00
2022-11-19T22:43:57.038Z,-2.10
2022-11-19T22:46:30.319Z,-2.10
2022-11-19T22:49:03.818Z,-2.10
2022-11-19T22:51:37.135Z,-2.10
2022-11-19T22:54:13.964Z,-2.20
2022-11-19T22:56:47.409Z,-2.20
2022-11-19T22:59:22.401Z,-2.20
2022-11-19T23:01:55.941Z,-2.30
2022-11-19T23:04:29.352Z,-2.30
2022-11-19T23:07:02.709Z,-2.40
2022-11-19T23:09:35.985Z,-2.50
2022-11-19T23:12:28.093Z,-2.50
2022-11-19T23:15:02.881Z,-2.50
2022-11-19T23:17:42.256Z,-2.50
2022-11-19T23:20:16.304Z,-2.60
2022-11-19T23:22:49.631Z,-2.60
2022-11-19T23:25:23.425Z,-2.60
2022-11-19T23:27:56.704Z,-2.70
2022-11-19T23:30:31.652Z,-2.70
2022-11-19T23:33:04.955Z,-2.70
2022-11-19T23:35:38.597Z,-2.70
2022-11-19T23:38:11.833Z,-2.80
2022-11-19T23:40:45.451Z,-2.80
2022-11-19T23:43:18.707Z,-2.80
2022-11-19T23:45:53.629Z,-2.80
2022-11-19T23:48:27.183Z,-2.80
2022-11-19T23:51:02.401Z,-2.80
2022-11-19T23:53:35.828Z,-2.90
2022-11-19T23:56:10.190Z,-2.90
2022-11-19T23:58:44.165Z,-3.00
